Time,TemperatureF,DewpointF,PressureIn,WindDirection,WindDirectionDegrees,WindSpeedMPH,WindSpeedGustMPH,Humidity,HourlyPrecipIn,Conditions,Clouds,dailyrainin,SoftwareType,DateUTC
2013-11-23 00:42:00,48.0,37.0,28.31,NW,320,8.0,11.0,65,0.00,,,-99.99,,2013-11-23 08:42:00,
2013-11-23 00:50:00,48.0,36.0,28.31,NNW,330,5.0,8.0,63,0.00,,,-99.99,,2013-11-23 08:50:00,
2013-11-23 01:22:00,48.0,36.0,28.31,NNW,330,5.0,8.0,63,0.00,,,-99.99,,2013-11-23 09:22:00,
2013-11-23 01:33:00,48.0,36.0,28.31,NNW,330,5.0,8.0,63,0.00,,,-99.99,,2013-11-23 09:33:00,
2013-11-23 01:43:00,48.0,36.0,28.31,NNW,330,5.0,8.0,63,0.00,,,-99.99,,2013-11-23 09:43:00,
2013-11-23 01:50:00,48.0,37.0,28.32,NNW,340,7.0,10.0,65,0.00,,,-99.99,,2013-11-23 09:50:00,
2013-11-23 02:42:00,48.0,37.0,28.32,NNW,340,7.0,10.0,65,0.00,,,-99.99,,2013-11-23 10:42:00,
2013-11-23 02:50:00,49.0,37.0,28.33,North,350,10.0,16.0,63,0.00,,,-99.99,,2013-11-23 10:50:00,
2013-11-23 03:42:00,49.0,37.0,28.33,North,350,10.0,16.0,63,0.00,,,-99.99,,2013-11-23 11:42:00,
2013-11-23 03:50:00,49.0,38.0,28.33,NNW,330,8.0,11.0,66,0.00,,,-99.99,,2013-11-23 11:50:00,
2013-11-23 04:22:00,49.0,38.0,28.33,NNW,330,8.0,11.0,66,0.00,,,-99.99,,2013-11-23 12:22:00,
2013-11-23 04:32:00,49.0,38.0,28.33,NNW,330,8.0,11.0,66,0.00,,,-99.99,,2013-11-23 12:32:00,
2013-11-23 04:42:00,49.0,38.0,28.33,NNW,330,8.0,11.0,66,0.00,,,-99.99,,2013-11-23 12:42:00,
2013-11-23 04:50:00,49.0,37.0,28.34,NNW,340,6.0,7.0,63,0.00,,,-99.99,,2013-11-23 12:50:00,
2013-11-23 05:22:00,49.0,37.0,28.34,NNW,340,6.0,7.0,63,0.00,,,-99.99,,2013-11-23 13:22:00,
2013-11-23 05:32:00,49.0,37.0,28.34,NNW,340,6.0,7.0,63,0.00,,,-99.99,,2013-11-23 13:32:00,
2013-11-23 05:42:00,49.0,37.0,28.34,NNW,340,6.0,7.0,63,0.00,,,-99.99,,2013-11-23 13:42:00,
2013-11-23 05:50:00,49.0,38.0,28.35,NNW,340,8.0,10.0,66,0.00,,,-99.99,,2013-11-23 13:50:00,
2013-11-23 06:21:00,49.0,38.0,28.35,NNW,340,8.0,10.0,66,0.00,,,-99.99,,2013-11-23 14:21:00,
2013-11-23 06:32:00,49.0,38.0,28.35,NNW,340,8.0,10.0,66,0.00,,,-99.99,,2013-11-23 14:32:00,
2013-11-23 06:42:00,49.0,38.0,28.35,NNW,340,8.0,10.0,66,0.00,,,-99.99,,2013-11-23 14:42:00,
2013-11-23 06:50:00,49.0,37.0,28.36,North,10,7.0,9.0,63,0.00,,,-99.99,,2013-11-23 14:50:00,
2013-11-23 07:43:00,49.0,37.0,28.36,North,10,7.0,9.0,63,0.00,,,-99.99,,2013-11-23 15:43:00,
2013-11-23 07:50:00,50.0,37.0,28.38,NNE,20,10.0,14.0,60,0.00,,,-99.99,,2013-11-23 15:50:00,
2013-11-23 08:43:00,50.0,37.0,28.38,NNE,20,10.0,14.0,60,0.00,,,-99.99,,2013-11-23 16:43:00,
2013-11-23 08:51:00,52.0,38.0,28.38,North,10,8.0,14.0,58,0.00,,,-99.99,,2013-11-23 16:51:00,
2013-11-23 09:42:00,52.0,38.0,28.38,North,10,8.0,14.0,58,0.00,,,-99.99,,2013-11-23 17:42:00,
2013-11-23 09:50:00,54.0,37.0,28.39,NNE,30,6.0,10.0,53,0.00,,,-99.99,,2013-11-23 17:50:00,
2013-11-23 10:22:00,54.0,37.0,28.39,NNE,30,6.0,10.0,53,0.00,,,-99.99,,2013-11-23 18:22:00,
2013-11-23 10:33:00,54.0,37.0,28.39,NNE,30,6.0,10.0,53,0.00,,,-99.99,,2013-11-23 18:33:00,
2013-11-23 10:42:00,54.0,37.0,28.39,NNE,30,6.0,10.0,53,0.00,,,-99.99,,2013-11-23 18:42:00,
2013-11-23 10:50:00,55.0,36.0,28.38,NNE,30,4.0,7.0,49,0.00,,,-99.99,,2013-11-23 18:50:00,
2013-11-23 11:21:00,55.0,36.0,28.38,NNE,30,4.0,7.0,49,0.00,,,-99.99,,2013-11-23 19:21:00,
2013-11-23 11:32:00,55.0,36.0,28.38,NNE,30,4.0,7.0,49,0.00,,,-99.99,,2013-11-23 19:32:00,
2013-11-23 11:42:00,55.0,36.0,28.38,NNE,30,4.0,7.0,49,0.00,,,-99.99,,2013-11-23 19:42:00,
2013-11-23 11:50:00,58.0,37.0,28.36,NNW,330,2.0,8.0,46,0.00,,,-99.99,,2013-11-23 19:50:00,
2013-11-23 12:42:00,58.0,37.0,28.36,NNW,330,2.0,8.0,46,0.00,,,-99.99,,2013-11-23 20:42:00,
2013-11-23 12:50:00,60.0,38.0,28.35,West,280,4.0,12.0,44,0.00,,,-99.99,,2013-11-23 20:50:00,
2013-11-23 13:21:00,60.0,38.0,28.35,West,280,4.0,12.0,44,0.00,,,-99.99,,2013-11-23 21:21:00,
2013-11-23 13:33:00,60.0,38.0,28.35,West,280,4.0,12.0,44,0.00,,,-99.99,,2013-11-23 21:33:00,
2013-11-23 13:43:00,60.0,38.0,28.35,West,280,4.0,12.0,44,0.00,,,-99.99,,2013-11-23 21:43:00,
2013-11-23 13:50:00,58.0,37.0,28.34,NNE,30,11.0,20.0,46,0.00,,,-99.99,,2013-11-23 21:50:00,
2013-11-23 14:23:00,58.0,37.0,28.34,NNE,30,11.0,20.0,46,0.00,,,-99.99,,2013-11-23 22:23:00,
2013-11-23 14:33:00,58.0,37.0,28.34,NNE,30,11.0,20.0,46,0.00,,,-99.99,,2013-11-23 22:33:00,
2013-11-23 14:43:00,58.0,37.0,28.34,NNE,30,11.0,20.0,46,0.00,,,-99.99,,2013-11-23 22:43:00,
2013-11-23 14:51:00,58.0,36.0,28.35,NNE,30,10.0,15.0,43,0.00,,,-99.99,,2013-11-23 22:51:00,
2013-11-23 15:42:00,58.0,36.0,28.35,NNE,30,10.0,15.0,43,0.00,,,-99.99,,2013-11-23 23:42:00,
2013-11-23 15:50:00,56.0,37.0,28.36,NE,40,10.0,14.0,49,0.00,,,-99.99,,2013-11-23 23:50:00,
2013-11-23 16:21:00,56.0,37.0,28.36,NE,40,10.0,14.0,49,0.00,,,-99.99,,2013-11-24 00:21:00,
2013-11-23 16:32:00,56.0,37.0,28.36,NE,40,10.0,14.0,49,0.00,,,-99.99,,2013-11-24 00:32:00,
2013-11-23 16:42:00,56.0,37.0,28.36,NE,40,10.0,14.0,49,0.00,,,-99.99,,2013-11-24 00:42:00,
2013-11-23 16:50:00,53.0,36.0,28.37,NE,40,11.0,18.0,53,0.00,,,-99.99,,2013-11-24 00:50:00,
2013-11-23 17:22:00,53.0,36.0,28.37,NE,40,11.0,18.0,53,0.00,,,-99.99,,2013-11-24 01:22:00,
2013-11-23 17:32:00,53.0,36.0,28.37,NE,40,11.0,18.0,53,0.00,,,-99.99,,2013-11-24 01:32:00,
2013-11-23 17:42:00,53.0,36.0,28.37,NE,40,11.0,18.0,53,0.00,,,-99.99,,2013-11-24 01:42:00,
2013-11-23 17:50:00,54.0,37.0,28.39,NNE,20,8.0,13.0,52,0.00,,,-99.99,,2013-11-24 01:50:00,
2013-11-23 18:42:00,54.0,37.0,28.39,NNE,20,8.0,13.0,52,0.00,,,-99.99,,2013-11-24 02:42:00,
2013-11-23 18:50:00,52.0,36.0,28.40,NNE,20,6.0,10.0,54,0.00,,,-99.99,,2013-11-24 02:50:00,
2013-11-23 19:22:00,52.0,36.0,28.40,NNE,20,6.0,10.0,54,0.00,,,-99.99,,2013-11-24 03:22:00,
2013-11-23 19:33:00,52.0,36.0,28.40,NNE,20,6.0,10.0,54,0.00,,,-99.99,,2013-11-24 03:33:00,
2013-11-23 19:43:00,52.0,36.0,28.40,NNE,20,6.0,10.0,54,0.00,,,-99.99,,2013-11-24 03:43:00,
2013-11-23 19:50:00,52.0,35.0,28.41,North,350,9.0,12.0,53,0.00,,,-99.99,,2013-11-24 03:50:00,
2013-11-23 20:23:00,52.0,35.0,28.41,North,350,9.0,12.0,53,0.00,,,-99.99,,2013-11-24 04:23:00,
2013-11-23 20:33:00,52.0,35.0,28.41,North,350,9.0,12.0,53,0.00,,,-99.99,,2013-11-24 04:33:00,
2013-11-23 20:42:00,52.0,35.0,28.41,North,350,9.0,12.0,53,0.00,,,-99.99,,2013-11-24 04:42:00,
2013-11-23 20:50:00,52.0,35.0,28.43,NNE,20,7.0,10.0,53,0.00,,,-99.99,,2013-11-24 04:50:00,
2013-11-23 21:22:00,52.0,35.0,28.43,NNE,20,7.0,10.0,53,0.00,,,-99.99,,2013-11-24 05:22:00,
2013-11-23 21:33:00,52.0,35.0,28.43,NNE,20,7.0,10.0,53,0.00,,,-99.99,,2013-11-24 05:33:00,
2013-11-23 21:43:00,52.0,35.0,28.43,NNE,20,7.0,10.0,53,0.00,,,-99.99,,2013-11-24 05:43:00,
2013-11-23 21:50:00,52.0,35.0,28.43,NNW,340,6.0,10.0,53,0.00,,,-99.99,,2013-11-24 05:50:00,
2013-11-23 22:42:00,52.0,35.0,28.43,NNW,340,6.0,10.0,53,0.00,,,-99.99,,2013-11-24 06:42:00,
2013-11-23 22:50:00,52.0,36.0,28.43,North,360,4.0,9.0,54,0.00,,,-99.99,,2013-11-24 06:50:00,
2013-11-23 23:42:00,52.0,36.0,28.43,North,360,4.0,9.0,54,0.00,,,-99.99,,2013-11-24 07:42:00,
2013-11-23 23:50:00,51.0,36.0,28.43,North,350,8.0,10.0,56,0.00,,,-99.99,,2013-11-24 07:50:00,